Time;durP1;ratioP1;P1;durP2;ratioP2;P2;SDS_P1;SDS_P2;PMS_P1;PMS_P2;Temp;Humidity;BMP_temperature;BMP_pressure;BME280_temperature;BME280_humidity;BME280_pressure;Samples;Min_cycle;Max_cycle;Signal;HPM_P1;HPM_P2
2022/05/27 00:01:40;;;;;;;;;2.00;2.00;;;;;17.15;53.90;102227.97;6282286;22;45558;-80
2022/05/27 00:04:05;;;;;;;;;3.00;1.00;;;;;17.18;53.82;102229.72;6282228;22;45244;-80
2022/05/27 00:06:31;;;;;;;;;1.00;1.00;;;;;17.19;54.06;102220.84;6310112;22;45385;-79
2022/05/27 00:08:57;;;;;;;;;2.00;1.00;;;;;17.18;53.95;102214.63;6281068;22;47582;-80
2022/05/27 00:11:23;;;;;;;;;1.33;1.33;;;;;17.16;53.64;102218.19;6281752;22;45640;-80
2022/05/27 00:13:50;;;;;;;;;0.67;0.67;;;;;17.12;53.95;102224.44;6310232;22;45319;-80
2022/05/27 00:16:16;;;;;;;;;2.00;1.67;;;;;17.08;54.21;102217.38;6310540;22;45159;-80
2022/05/27 00:18:42;;;;;;;;;1.00;1.00;;;;;17.08;54.32;102225.34;6312782;22;46455;-81
2022/05/27 00:21:08;;;;;;;;;2.00;2.00;;;;;17.07;54.19;102227.13;6312275;22;45624;-80
2022/05/27 00:23:34;;;;;;;;;2.00;2.00;;;;;17.06;54.68;102225.38;6311589;22;45180;-81
2022/05/27 00:26:00;;;;;;;;;3.00;2.00;;;;;17.04;54.36;102216.50;6284094;22;45109;-80
2022/05/27 00:28:26;;;;;;;;;1.00;1.00;;;;;17.01;54.35;102213.00;6280989;22;46946;-81
2022/05/27 00:30:52;;;;;;;;;2.00;2.00;;;;;16.96;54.40;102205.91;6282643;22;45298;-81
2022/05/27 00:33:18;;;;;;;;;1.00;1.00;;;;;16.90;54.62;102208.63;6281760;22;45196;-80
2022/05/27 00:35:44;;;;;;;;;2.00;2.00;;;;;16.85;54.95;102196.25;6308318;22;45756;-80
2022/05/27 00:38:12;;;;;;;;;1.67;0.33;;;;;16.76;54.92;102203.38;6309172;22;45365;-81
2022/05/27 00:40:42;;;;;;;;;1.00;1.00;;;;;16.70;55.24;102207.81;6311598;22;45230;-81
2022/05/27 00:43:08;;;;;;;;;1.33;1.33;;;;;16.66;55.06;102198.09;6286154;22;45201;-80
2022/05/27 00:45:41;;;;;;;;;5.00;3.00;;;;;16.61;55.25;102200.78;6284201;22;45398;-81
2022/05/27 00:48:12;;;;;;;;;2.00;1.00;;;;;16.57;55.48;102209.66;6308353;22;46932;-81
2022/05/27 00:50:42;;;;;;;;;2.33;1.00;;;;;16.53;55.75;102208.78;6283772;22;45168;-81
2022/05/27 00:53:18;;;;;;;;;0.67;0.33;;;;;16.50;55.57;102205.28;6310790;22;45362;-80
2022/05/27 00:55:48;;;;;;;;;1.00;1.00;;;;;16.46;55.89;102203.50;6309297;22;45748;-80
2022/05/27 00:58:22;;;;;;;;;2.00;2.00;;;;;16.43;56.12;102209.72;6282222;22;47632;-80
2022/05/27 01:00:48;;;;;;;;;1.00;1.00;;;;;16.38;55.86;102200.00;6309544;22;45207;-80
2022/05/27 01:03:15;;;;;;;;;1.67;1.67;;;;;16.34;56.41;102196.50;6285373;22;45166;-80
2022/05/27 01:05:44;;;;;;;;;2.00;1.00;;;;;16.30;56.68;102192.97;6285328;22;45421;-80
2022/05/27 01:08:15;;;;;;;;;2.00;2.00;;;;;16.28;56.60;102193.88;6282465;22;47309;-80
2022/05/27 01:10:53;;;;;;;;;0.33;0.33;;;;;16.25;56.84;102189.44;6309434;22;45363;-80
2022/05/27 01:13:30;;;;;;;;;1.00;1.00;;;;;16.20;56.65;102192.97;6311294;22;45259;-80
2022/05/27 01:16:11;;;;;;;;;1.00;1.00;;;;;16.19;56.78;102192.09;6282917;22;45421;-80
2022/05/27 01:21:41;;;;;;;;;1.00;1.00;;;;;16.14;57.18;102187.69;6310347;22;45354;-80
2022/05/27 01:24:17;;;;;;;;;2.00;2.00;;;;;16.10;57.30;102186.84;6312550;22;45300;-80
2022/05/27 01:27:01;;;;;;;;;2.00;2.00;;;;;16.09;57.71;102191.28;6308916;22;45523;-80
2022/05/27 01:30:18;;;;;;;;;2.00;2.00;;;;;16.04;57.64;102187.75;6309467;22;46903;-80
2022/05/27 01:33:09;;;;;;;;;2.00;2.00;;;;;16.01;57.72;102193.06;6250927;22;45188;-80
2022/05/27 01:36:09;;;;;;;;;3.33;2.00;;;;;15.97;57.77;102185.97;6309414;22;45225;-80
2022/05/27 01:39:03;;;;;;;;;1.00;1.00;;;;;15.94;58.37;102185.13;6309677;22;45492;-81
2022/05/27 01:41:43;;;;;;;;;2.75;1.75;;;;;15.93;58.12;102193.97;6203014;22;46779;-80
2022/05/27 01:44:55;;;;;;;;;1.00;1.00;;;;;15.92;58.29;102193.06;6313191;22;45090;-80
2022/05/27 01:47:29;;;;;;;;;0.00;0.00;;;;;15.87;58.40;102194.84;6283050;22;45300;-80
2022/05/27 01:50:27;;;;;;;;;2.00;1.33;;;;;15.83;58.67;102182.50;6310058;22;45333;-80
2022/05/27 01:53:06;;;;;;;;;1.00;1.00;;;;;15.80;58.68;102188.69;6309201;22;46262;-80
2022/05/27 01:56:00;;;;;;;;;2.00;1.00;;;;;15.77;58.82;102187.78;6310183;22;45342;-80
2022/05/27 01:58:37;;;;;;;;;4.00;3.00;;;;;15.72;58.90;102189.59;6310701;22;45485;-80
2022/05/27 02:01:07;;;;;;;;;3.67;2.00;;;;;15.71;58.94;102194.00;6310421;22;45374;-81
2022/05/27 02:03:40;;;;;;;;;4.00;3.00;;;;;15.70;58.83;102186.06;6310483;22;46381;-79
2022/05/27 02:06:25;;;;;;;;;3.50;3.50;;;;;15.69;59.09;102185.19;6311048;22;45373;-80
2022/05/27 02:09:09;;;;;;;;;2.00;2.00;;;;;15.71;58.91;102187.81;6282593;22;45201;-80
2022/05/27 02:11:34;;;;;;;;;3.00;3.00;;;;;15.72;58.96;102181.63;6282273;22;45789;-80
2022/05/27 02:14:20;;;;;;;;;1.33;1.33;;;;;15.72;58.77;102185.16;6282035;22;45869;-81
2022/05/27 02:16:52;;;;;;;;;2.33;2.33;;;;;15.72;58.69;102185.16;6306999;22;45305;-79
2022/05/27 02:19:24;;;;;;;;;2.25;2.00;;;;;15.75;58.99;102186.94;6281729;22;45223;-80
2022/05/27 02:21:56;;;;;;;;;3.00;2.00;;;;;15.76;59.17;102191.34;6311175;22;45105;-80
2022/05/27 02:24:39;;;;;;;;;1.75;1.75;;;;;15.79;58.97;102189.56;6308484;22;47224;-80
2022/05/27 02:27:40;;;;;;;;;3.00;3.00;;;;;15.82;58.94;102186.94;6311192;22;45303;-80
2022/05/27 02:30:11;;;;;;;;;2.00;2.00;;;;;15.85;58.96;102191.31;6304492;22;45157;-81
2022/05/27 02:32:47;;;;;;;;;3.00;2.00;;;;;15.84;58.66;102186.91;6310984;22;45165;-81
2022/05/27 02:35:27;;;;;;;;;3.00;3.00;;;;;15.80;58.92;102191.34;6310614;22;46278;-80
2022/05/27 02:37:59;;;;;;;;;0.33;0.33;;;;;15.80;58.89;102193.13;6282239;22;45508;-81
2022/05/27 02:40:36;;;;;;;;;2.67;2.00;;;;;15.79;58.87;102184.25;6283408;22;45191;-80
2022/05/27 02:43:13;;;;;;;;;2.00;2.00;;;;;15.81;58.89;102186.91;6313235;22;45197;-80
2022/05/27 02:45:54;;;;;;;;;3.00;3.00;;;;;15.80;59.30;102182.50;6313176;22;45330;-80
2022/05/27 02:48:44;;;;;;;;;5.75;4.00;;;;;15.80;59.36;102186.03;6281999;22;45185;-80
2022/05/27 02:51:25;;;;;;;;;3.50;2.75;;;;;15.83;59.16;102183.38;6306313;22;45337;-80
2022/05/27 02:53:59;;;;;;;;;3.00;2.00;;;;;15.85;59.45;102186.00;6309974;22;45478;-80
2022/05/27 02:56:31;;;;;;;;;3.00;2.75;;;;;15.83;59.47;102182.50;6310298;22;45350;-80
2022/05/27 02:58:56;;;;;;;;;2.75;2.75;;;;;15.82;59.52;102183.34;6310368;22;45195;-80
2022/05/27 03:01:22;;;;;;;;;2.00;2.00;;;;;15.81;59.50;102190.44;6282302;22;45257;-79
2022/05/27 03:03:48;;;;;;;;;2.75;1.75;;;;;15.81;59.35;102193.09;6282663;22;45511;-81
2022/05/27 03:06:20;;;;;;;;;3.25;3.25;;;;;15.81;59.48;102193.09;6283094;22;47207;-80
2022/05/27 03:09:02;;;;;;;;;3.00;2.50;;;;;15.79;59.48;102184.25;6310755;22;45408;-80
2022/05/27 03:11:42;;;;;;;;;3.00;3.00;;;;;15.81;59.72;102194.88;6281840;22;45422;-80
2022/05/27 03:14:33;;;;;;;;;2.00;2.00;;;;;15.81;59.56;102193.09;6282565;22;45746;-81
2022/05/27 03:17:23;;;;;;;;;2.25;2.25;;;;;15.84;59.62;102184.25;6281608;22;46812;-81
2022/05/27 03:20:16;;;;;;;;;2.00;2.00;;;;;15.84;59.47;102194.88;6282513;22;45199;-80
2022/05/27 03:23:09;;;;;;;;;3.00;3.00;;;;;15.83;59.47;102187.81;6281956;22;45276;-81
2022/05/27 03:25:44;;;;;;;;;2.50;2.25;;;;;15.81;59.88;102187.78;6276919;22;45451;-81
2022/05/27 03:28:42;;;;;;;;;3.75;3.00;;;;;15.82;59.52;102180.69;6306328;22;45345;-80
2022/05/27 03:31:26;;;;;;;;;3.50;3.50;;;;;15.81;59.28;102186.91;6240653;22;45194;-81
2022/05/27 03:34:14;;;;;;;;;3.00;3.00;;;;;15.79;59.20;102184.25;6311125;22;45237;-81
2022/05/27 03:36:52;;;;;;;;;5.75;4.75;;;;;15.81;59.48;102181.59;6281412;22;45164;-81
2022/05/27 03:39:28;;;;;;;;;5.25;5.00;;;;;15.82;59.50;102178.03;6310875;22;46354;-81
2022/05/27 03:42:00;;;;;;;;;5.75;4.25;;;;;15.85;59.17;102180.69;6306953;22;45326;-81
2022/05/27 03:44:29;;;;;;;;;5.50;3.00;;;;;15.85;59.40;102184.25;6283309;22;45327;-81
2022/05/27 03:47:01;;;;;;;;;3.00;3.00;;;;;15.86;59.18;102190.44;6282107;22;45462;-81
2022/05/27 03:49:27;;;;;;;;;2.00;2.00;;;;;15.86;58.90;102198.41;6281788;22;48365;-81
2022/05/27 03:52:05;;;;;;;;;5.00;5.00;;;;;15.81;58.94;102190.44;6282058;22;45817;-81
2022/05/27 03:54:31;;;;;;;;;4.00;3.00;;;;;15.80;59.09;102182.50;6282285;22;45263;-81
2022/05/27 03:56:57;;;;;;;;;6.25;4.25;;;;;15.78;59.09;102189.59;6302139;22;45160;-81
2022/05/27 03:59:24;;;;;;;;;3.00;3.00;;;;;15.76;59.56;102191.34;6309493;22;45209;-80
2022/05/27 04:01:52;;;;;;;;;4.50;4.25;;;;;15.74;59.18;102188.69;6282420;22;45232;-79
2022/05/27 04:04:20;;;;;;;;;3.25;3.00;;;;;15.72;59.53;102192.25;6281709;22;45298;-80
2022/05/27 04:06:49;;;;;;;;;3.25;3.25;;;;;15.67;59.39;102184.25;6283574;22;45417;-80
2022/05/27 04:09:16;;;;;;;;;2.75;2.75;;;;;15.64;59.55;102190.47;6281053;22;47226;-81
2022/05/27 04:11:42;;;;;;;;;3.50;2.00;;;;;15.62;59.96;102186.03;6309809;22;45310;-81
2022/05/27 04:14:08;;;;;;;;;3.25;3.25;;;;;15.63;60.15;102193.09;6281473;22;45382;-80
2022/05/27 04:16:34;;;;;;;;;3.50;2.25;;;;;15.63;60.07;102193.97;6284089;22;45497;-80
2022/05/27 04:19:03;;;;;;;;;4.00;3.25;;;;;15.64;60.15;102186.91;6282485;22;47886;-80
2022/05/27 04:21:28;;;;;;;;;2.00;2.00;;;;;15.63;59.98;102193.97;6311462;22;45259;-80
2022/05/27 04:23:54;;;;;;;;;4.25;2.50;;;;;15.62;60.20;102192.22;6308549;22;45203;-80
2022/05/27 04:26:20;;;;;;;;;5.75;4.75;;;;;15.62;60.08;102199.31;6283596;22;45474;-80
2022/05/27 04:28:46;;;;;;;;;4.00;3.00;;;;;15.64;60.26;102203.72;6310690;22;45275;-80
2022/05/27 04:31:12;;;;;;;;;3.25;3.25;;;;;15.66;60.26;102201.06;6311511;22;45264;-81
2022/05/27 04:33:40;;;;;;;;;5.75;5.00;;;;;15.70;60.40;102200.22;6282658;22;45389;-81
2022/05/27 04:36:07;;;;;;;;;3.00;3.00;;;;;15.72;59.98;102203.75;6283816;22;45132;-80
2022/05/27 04:38:33;;;;;;;;;5.25;5.25;;;;;15.73;60.43;102201.97;6282543;22;47033;-80
2022/05/27 04:41:02;;;;;;;;;2.25;2.25;;;;;15.73;60.13;102208.16;6309679;22;45192;-80
2022/05/27 04:43:27;;;;;;;;;4.00;4.00;;;;;15.73;59.84;102200.19;6310142;22;45262;-80
2022/05/27 04:45:53;;;;;;;;;3.00;3.00;;;;;15.72;60.46;102197.56;6311849;22;45259;-80
2022/05/27 04:48:19;;;;;;;;;5.25;5.25;;;;;15.75;60.18;102201.09;6282573;22;48093;-80
2022/05/27 04:50:45;;;;;;;;;3.25;3.00;;;;;15.78;59.91;102205.50;6309770;22;45212;-81
2022/05/27 04:53:10;;;;;;;;;4.00;3.00;;;;;15.76;60.10;102207.28;6310780;22;45350;-80
2022/05/27 04:55:38;;;;;;;;;6.00;5.00;;;;;15.76;59.96;102208.16;6283811;22;45445;-80
2022/05/27 04:58:10;;;;;;;;;5.00;5.00;;;;;15.79;59.96;102205.50;6282823;22;46793;-80
2022/05/27 05:00:40;;;;;;;;;4.00;4.00;;;;;15.80;60.14;102204.63;6283193;22;45375;-81
2022/05/27 05:03:06;;;;;;;;;5.00;5.00;;;;;15.83;60.42;102206.41;6308568;22;45203;-81
2022/05/27 05:05:33;;;;;;;;;6.75;5.50;;;;;15.83;60.12;102209.06;6286738;22;45387;-81
2022/05/27 05:08:06;;;;;;;;;6.50;5.75;;;;;15.82;60.01;102202.84;6283092;22;46148;-81
2022/05/27 05:10:35;;;;;;;;;5.50;4.75;;;;;15.83;60.16;102212.59;6314717;22;45279;-81
2022/05/27 05:13:01;;;;;;;;;8.00;7.50;;;;;15.83;60.23;102207.28;6281979;22;45351;-81
2022/05/27 05:15:27;;;;;;;;;6.00;6.00;;;;;15.81;59.89;102210.81;6312117;22;45177;-80
2022/05/27 05:17:53;;;;;;;;;5.25;4.75;;;;;15.77;60.20;102203.72;6310344;22;45470;-80
2022/05/27 05:20:25;;;;;;;;;8.50;6.50;;;;;15.76;60.31;102202.84;6283190;22;45826;-80
2022/05/27 05:22:51;;;;;;;;;7.25;5.75;;;;;15.77;60.50;102211.69;6282916;22;45193;-81
2022/05/27 05:25:17;;;;;;;;;7.75;6.75;;;;;15.76;60.33;102208.16;6311663;22;45202;-81
2022/05/27 05:27:42;;;;;;;;;11.25;8.50;;;;;15.77;60.54;102206.38;6313168;22;46157;-81
2022/05/27 05:30:13;;;;;;;;;7.00;7.00;;;;;15.81;60.60;102209.03;6316081;22;45363;-80
2022/05/27 05:32:39;;;;;;;;;9.50;8.75;;;;;15.85;60.40;102207.25;6309289;22;45345;-81
2022/05/27 05:35:06;;;;;;;;;9.25;8.75;;;;;15.86;60.36;102206.38;6282659;22;45609;-81
2022/05/27 05:37:31;;;;;;;;;11.50;10.50;;;;;15.92;60.48;102206.34;6282961;22;46533;-80
2022/05/27 05:39:57;;;;;;;;;10.75;10.50;;;;;15.93;60.38;102208.16;6310794;22;45164;-81
2022/05/27 05:42:25;;;;;;;;;10.75;10.50;;;;;15.96;60.42;102205.47;6310801;22;45239;-80
2022/05/27 05:44:51;;;;;;;;;13.00;13.00;;;;;15.99;60.15;102205.47;6282024;22;45457;-81
2022/05/27 05:47:17;;;;;;;;;13.75;11.50;;;;;16.02;60.38;102204.56;6283189;22;47574;-80
2022/05/27 05:49:45;;;;;;;;;18.00;16.00;;;;;16.04;60.23;102206.34;6285445;22;45694;-81
2022/05/27 05:52:11;;;;;;;;;15.50;14.75;;;;;16.05;60.48;102210.75;6313759;22;45160;-81
2022/05/27 05:54:36;;;;;;;;;18.00;15.50;;;;;16.05;60.44;102204.56;6310362;22;45223;-80
2022/05/27 05:57:03;;;;;;;;;17.50;14.50;;;;;16.05;60.50;102212.53;6281925;22;46939;-80
2022/05/27 05:59:31;;;;;;;;;13.75;13.25;;;;;16.09;60.41;102207.22;6281647;22;45412;-80
2022/05/27 06:01:58;;;;;;;;;14.50;12.25;;;;;16.10;60.41;102211.63;6310585;22;45416;-79
2022/05/27 06:04:23;;;;;;;;;6.50;4.50;;;;;16.09;60.46;102209.88;6309930;22;45363;-79
2022/05/27 06:06:49;;;;;;;;;10.50;7.75;;;;;16.06;60.29;102203.66;6282373;22;47194;-79
2022/05/27 06:09:14;;;;;;;;;11.25;9.50;;;;;16.02;60.75;102221.38;6282251;22;45348;-80
2022/05/27 06:11:40;;;;;;;;;10.00;7.00;;;;;16.01;60.79;102219.63;6311203;22;45263;-79
2022/05/27 06:14:06;;;;;;;;;8.50;6.25;;;;;15.99;60.92;102217.88;6284305;22;45181;-80
2022/05/27 06:16:35;;;;;;;;;10.00;7.00;;;;;15.95;60.93;102216.09;6311129;22;45594;-81
2022/05/27 06:19:00;;;;;;;;;5.00;5.00;;;;;15.92;61.07;102206.34;6281894;22;45196;-80
2022/05/27 06:21:27;;;;;;;;;5.25;5.25;;;;;15.91;61.36;102215.22;6311753;22;45473;-81
2022/05/27 06:23:52;;;;;;;;;5.00;5.00;;;;;15.88;61.50;102213.47;6283610;22;45952;-83
2022/05/27 06:26:18;;;;;;;;;5.25;4.75;;;;;15.87;61.40;102205.47;6283113;22;46796;-83
2022/05/27 06:34:25;;;;;;;;;5.00;4.75;;;;;15.86;61.77;102219.66;6309706;22;45227;-80
2022/05/27 06:36:54;;;;;;;;;6.25;5.50;;;;;15.88;62.02;102223.19;6310615;22;45337;-81
2022/05/27 06:39:20;;;;;;;;;8.00;7.00;;;;;15.90;61.75;102223.19;6307773;22;45252;-80
2022/05/27 06:41:46;;;;;;;;;9.00;8.00;;;;;15.90;61.75;102228.50;6308662;22;45286;-79
2022/05/27 06:44:11;;;;;;;;;9.00;8.75;;;;;15.89;61.73;102224.97;6280489;22;45819;-80
2022/05/27 06:46:37;;;;;;;;;9.00;7.75;;;;;15.94;61.78;102230.28;6282106;22;46686;-80
2022/05/27 06:49:05;;;;;;;;;10.50;9.00;;;;;15.95;61.65;102230.25;6309619;22;45350;-80
2022/05/27 06:51:30;;;;;;;;;9.00;8.00;;;;;16.01;61.93;102234.66;6307916;22;45287;-79
2022/05/27 06:53:57;;;;;;;;;8.75;8.25;;;;;16.02;61.76;102224.03;6281746;22;45180;-79
2022/05/27 06:56:22;;;;;;;;;10.50;9.50;;;;;16.07;61.58;102222.25;6309786;22;45277;-79
2022/05/27 06:58:50;;;;;;;;;14.00;10.50;;;;;16.12;61.51;102226.66;6281285;22;45326;-79
2022/05/27 07:01:16;;;;;;;;;5.50;5.50;;;;;16.20;61.46;102208.91;6310002;22;45354;-78
2022/05/27 07:03:42;;;;;;;;;12.00;11.00;;;;;16.27;61.23;102211.56;6281311;22;45354;-78
2022/05/27 07:06:10;;;;;;;;;10.00;9.75;;;;;16.41;61.46;102208.88;6281352;22;47793;-78
2022/05/27 07:08:36;;;;;;;;;13.75;12.75;;;;;16.59;61.21;102207.88;6310561;22;45358;-77
2022/05/27 07:11:05;;;;;;;;;9.25;8.50;;;;;16.81;60.70;102213.97;6310431;22;45226;-79
2022/05/27 07:13:34;;;;;;;;;11.00;10.00;;;;;16.96;60.35;102216.56;6309334;22;45224;-80
2022/05/27 07:16:03;;;;;;;;;12.75;10.25;;;;;17.05;59.87;102210.28;6281294;22;47904;-81
2022/05/27 07:18:29;;;;;;;;;12.00;10.50;;;;;17.15;59.75;102212.00;6281822;22;45836;-80
2022/05/27 07:21:06;;;;;;;;;10.25;8.25;;;;;17.23;59.60;102214.59;6281765;22;45221;-80
2022/05/27 07:23:32;;;;;;;;;12.25;11.25;;;;;17.33;59.38;102210.09;6282415;22;45451;-79
2022/05/27 07:26:03;;;;;;;;;8.00;7.75;;;;;17.41;59.00;102209.13;6281043;22;46954;-82
2022/05/27 07:28:28;;;;;;;;;11.00;11.00;;;;;17.52;58.80;102214.34;6281449;22;45215;-79
2022/05/27 07:30:56;;;;;;;;;11.50;11.00;;;;;17.61;58.67;102219.63;6309471;22;45192;-80
2022/05/27 07:33:22;;;;;;;;;8.25;6.75;;;;;17.68;58.51;102223.09;6310447;22;45271;-80
2022/05/27 07:35:48;;;;;;;;;9.00;9.00;;;;;17.74;58.04;102228.34;6281043;22;45481;-80
2022/05/27 07:38:14;;;;;;;;;10.50;9.50;;;;;17.74;58.39;102220.34;6282195;22;45563;-80
2022/05/27 07:40:40;;;;;;;;;11.00;9.25;;;;;17.73;57.82;102221.28;6281473;22;45359;-80
2022/05/27 07:43:10;;;;;;;;;11.25;8.50;;;;;17.68;58.05;102217.75;6282545;22;45521;-80
2022/05/27 07:45:41;;;;;;;;;12.25;11.25;;;;;17.68;58.01;102220.44;6281430;22;47011;-80
2022/05/27 07:48:08;;;;;;;;;10.75;10.75;;;;;17.71;57.87;102224.84;6309479;22;45234;-75
2022/05/27 07:50:34;;;;;;;;;11.75;10.00;;;;;17.74;57.84;102214.16;6301505;22;45644;-78
2022/05/27 07:52:59;;;;;;;;;8.50;8.50;;;;;17.75;57.89;102222.16;6280932;22;45282;-78
2022/05/27 07:55:25;;;;;;;;;10.50;9.25;;;;;17.75;57.63;102227.47;6305492;22;46857;-78
2022/05/27 07:57:50;;;;;;;;;9.00;9.00;;;;;17.74;57.47;102220.34;6274488;22;45395;-78
2022/05/27 08:00:20;;;;;;;;;7.25;7.00;;;;;17.74;58.03;102224.81;6306821;22;45432;-78
2022/05/27 08:02:46;;;;;;;;;10.75;8.50;;;;;17.76;57.83;102217.69;6308595;22;45453;-78
2022/05/27 08:05:20;;;;;;;;;9.00;9.00;;;;;17.77;57.93;102220.31;6279688;22;46932;-78
2022/05/27 08:07:46;;;;;;;;;8.00;6.50;;;;;17.75;58.14;102216.81;6280175;22;45331;-78
2022/05/27 08:10:14;;;;;;;;;11.25;9.25;;;;;17.76;57.81;102215.91;6281005;22;45680;-78
2022/05/27 08:12:40;;;;;;;;;8.25;8.25;;;;;17.72;57.91;102223.94;6307134;22;45470;-78
2022/05/27 08:15:08;;;;;;;;;6.75;6.75;;;;;17.69;58.24;102223.97;6280861;22;46261;-75
2022/05/27 08:17:36;;;;;;;;;9.00;8.00;;;;;17.65;58.56;102225.78;6281488;22;45280;-82
2022/05/27 08:20:07;;;;;;;;;9.00;9.00;;;;;17.62;58.66;102224.03;6308792;22;45613;-81
2022/05/27 08:22:33;;;;;;;;;8.00;6.00;;;;;17.62;58.73;102228.47;6309009;22;45442;-80
2022/05/27 08:24:58;;;;;;;;;7.75;7.75;;;;;17.63;58.47;102228.44;6281161;22;48124;-81
2022/05/27 08:27:24;;;;;;;;;9.50;9.00;;;;;17.65;58.86;102233.78;6281720;22;45380;-80
2022/05/27 08:29:49;;;;;;;;;6.75;6.00;;;;;17.66;58.97;102224.88;6309667;22;45331;-81
2022/05/27 08:32:15;;;;;;;;;7.00;6.25;;;;;17.66;58.96;102232.00;6282120;22;45355;-81
2022/05/27 08:40:43;;;;;;;;;6.50;6.50;;;;;17.68;59.21;102227.53;6309753;22;45240;-81
2022/05/27 08:43:23;;;;;;;;;8.75;6.75;;;;;17.68;59.05;102231.09;6309481;22;45091;-81
2022/05/27 08:46:07;;;;;;;;;6.00;6.00;;;;;17.66;59.13;102219.56;6281090;22;48504;-80
2022/05/27 08:48:38;;;;;;;;;6.00;5.25;;;;;17.62;59.15;102221.38;6309220;22;45230;-80
2022/05/27 08:51:35;;;;;;;;;10.50;5.75;;;;;17.62;59.27;102225.81;6309466;22;45160;-80
2022/05/27 08:54:24;;;;;;;;;7.00;5.50;;;;;17.62;59.48;102220.50;6309513;22;45157;-80
2022/05/27 08:59:45;;;;;;;;;8.50;6.00;;;;;17.63;59.53;102230.25;6309310;22;45424;-81
2022/05/27 09:02:19;;;;;;;;;7.00;6.00;;;;;17.66;59.70;102234.66;6309863;22;45518;-81
2022/05/27 09:04:47;;;;;;;;;4.50;4.50;;;;;17.67;59.74;102233.75;6281402;22;45329;-81
2022/05/27 09:07:36;;;;;;;;;4.75;4.25;;;;;17.67;59.94;102228.41;6309764;22;45278;-81
2022/05/27 09:10:40;;;;;;;;;4.25;4.00;;;;;17.66;59.84;102230.19;6302665;22;45482;-83
2022/05/27 09:13:30;;;;;;;;;6.50;6.00;;;;;17.67;59.74;102233.75;6233992;22;45574;-78
2022/05/27 09:16:08;;;;;;;;;3.00;3.00;;;;;17.66;59.79;102227.53;6280405;22;45401;-78
2022/05/27 09:18:54;;;;;;;;;5.25;5.00;;;;;17.70;60.18;102231.97;6308853;22;46044;-77
2022/05/27 09:21:31;;;;;;;;;2.25;2.25;;;;;17.82;59.84;102229.19;6310977;22;45151;-80
2022/05/27 09:24:12;;;;;;;;;5.50;5.50;;;;;17.90;59.34;102230.91;6281260;22;45378;-77
2022/05/27 09:26:42;;;;;;;;;4.00;4.00;;;;;17.93;59.45;102225.53;6280359;22;45476;-78
2022/05/27 09:29:26;;;;;;;;;4.25;3.00;;;;;18.00;59.48;102227.25;6280495;22;46019;-77
2022/05/27 09:32:06;;;;;;;;;5.75;5.75;;;;;18.06;59.00;102233.38;6280438;22;45437;-79
2022/05/27 09:34:38;;;;;;;;;6.00;5.50;;;;;18.16;59.14;102227.97;6281014;22;45221;-79
2022/05/27 09:37:07;;;;;;;;;6.25;6.00;;;;;18.26;58.90;102232.28;6280492;22;45416;-79
2022/05/27 09:39:36;;;;;;;;;4.50;4.50;;;;;18.34;59.12;102219.75;6306247;22;46844;-82
2022/05/27 09:42:17;;;;;;;;;4.00;4.00;;;;;18.38;58.70;102218.78;6280493;22;45277;-80
2022/05/27 09:44:50;;;;;;;;;8.00;4.25;;;;;18.41;58.42;102226.75;6307092;22;45266;-80
2022/05/27 09:47:17;;;;;;;;;6.00;6.00;;;;;18.47;58.54;102226.69;6304687;22;45306;-81
2022/05/27 09:49:46;;;;;;;;;5.50;5.50;;;;;18.53;58.74;102220.41;6280718;22;48303;-81
2022/05/27 09:52:37;;;;;;;;;5.75;5.75;;;;;18.62;58.45;102224.72;6310723;22;45354;-82
2022/05/27 09:55:16;;;;;;;;;3.00;3.00;;;;;18.77;58.41;102226.34;6307903;22;45347;-80
2022/05/27 09:58:02;;;;;;;;;4.00;4.00;;;;;18.94;58.20;102219.84;6308941;22;45385;-82
2022/05/27 10:00:49;;;;;;;;;4.00;4.00;;;;;19.09;57.58;102220.53;6306337;22;47106;-80
2022/05/27 10:03:32;;;;;;;;;6.00;6.00;;;;;19.17;57.55;102215.94;6280715;22;45390;-81
2022/05/27 10:06:06;;;;;;;;;3.00;3.00;;;;;19.26;57.50;102221.13;6280202;22;45370;-82
2022/05/27 10:08:40;;;;;;;;;4.50;4.50;;;;;19.35;57.06;102214.75;6280198;22;45406;-80
2022/05/27 10:11:17;;;;;;;;;6.00;6.00;;;;;19.40;56.65;102212.88;6280422;22;48261;-79
2022/05/27 10:13:44;;;;;;;;;12.50;9.50;;;;;19.46;56.69;102198.53;6279542;22;45319;-79
2022/05/27 10:16:21;;;;;;;;;14.25;13.25;;;;;19.55;56.28;102198.41;6280402;22;45409;-80
2022/05/27 10:18:47;;;;;;;;;1.50;1.50;;;;;19.66;56.52;102201.78;6308502;22;45154;-79
2022/05/27 10:21:19;;;;;;;;;6.00;5.00;;;;;19.79;56.30;102205.13;6280178;22;46724;-82
2022/05/27 10:23:54;;;;;;;;;4.67;4.67;;;;;19.85;55.75;102206.78;6280395;22;45424;-80
2022/05/27 10:26:27;;;;;;;;;5.00;5.00;;;;;19.90;55.59;102195.09;6308090;22;45395;-78
2022/05/27 10:29:10;;;;;;;;;4.75;4.00;;;;;19.96;55.48;102194.97;6280943;22;45480;-78
2022/05/27 10:31:36;;;;;;;;;4.33;4.33;;;;;20.01;55.24;102203.78;6280682;22;48253;-79
2022/05/27 10:34:02;;;;;;;;;4.25;4.25;;;;;20.05;55.28;102208.16;6280335;22;45422;-80
2022/05/27 10:37:01;;;;;;;;;5.50;5.00;;;;;20.16;54.87;102201.72;6281745;22;45363;-81
2022/05/27 10:39:28;;;;;;;;;6.00;5.00;;;;;20.30;54.90;102196.09;6280175;22;45494;-79
2022/05/27 10:42:21;;;;;;;;;6.67;5.00;;;;;20.44;54.58;102197.53;6307938;22;46492;-79
2022/05/27 10:45:00;;;;;;;;;5.00;4.25;;;;;20.53;54.18;102198.25;6279955;22;45531;-79
2022/05/27 10:47:46;;;;;;;;;5.00;4.00;;;;;20.59;54.52;102193.69;6280617;22;45336;-80
2022/05/27 10:50:23;;;;;;;;;6.25;6.25;;;;;20.69;54.35;102205.97;6306083;22;45422;-79
2022/05/27 10:53:11;;;;;;;;;5.50;5.50;;;;;20.79;54.00;102209.28;6280381;22;47184;-79
2022/05/27 10:55:54;;;;;;;;;5.67;4.00;;;;;20.92;53.42;102202.75;6281147;22;45352;-80
2022/05/27 11:02:19;;;;;;;;;6.75;5.00;;;;;20.98;53.07;102200.84;6212490;22;45289;-80
2022/05/27 11:04:56;;;;;;;;;6.00;5.25;;;;;20.98;52.83;102204.38;6280092;22;48190;-81
2022/05/27 11:07:36;;;;;;;;;6.00;5.33;;;;;21.05;53.20;102200.66;6308625;22;45308;-80
2022/05/27 11:10:17;;;;;;;;;7.67;6.00;;;;;21.21;53.01;102205.66;6280237;22;45595;-81
2022/05/27 11:16:12;;;;;;;;;7.00;5.25;;;;;21.63;52.27;102194.78;6308107;22;45718;-81
2022/05/27 11:19:09;;;;;;;;;7.00;7.00;;;;;21.76;51.75;102194.41;6308426;22;45223;-80
2022/05/27 11:21:53;;;;;;;;;5.50;5.50;;;;;21.84;51.33;102196.88;6245527;22;45677;-81
2022/05/27 11:24:25;;;;;;;;;9.25;7.25;;;;;21.86;51.01;102195.03;6277970;22;45793;-82
2022/05/27 11:27:18;;;;;;;;;6.25;6.00;;;;;21.86;51.09;102191.47;6278106;22;47454;-79
2022/05/27 11:30:02;;;;;;;;;9.00;8.00;;;;;21.84;50.43;102193.31;6279069;22;45411;-80
2022/05/27 11:32:53;;;;;;;;;7.00;6.00;;;;;21.74;50.64;102187.34;6278701;22;45406;-81
2022/05/27 11:35:21;;;;;;;;;5.33;5.33;;;;;21.71;50.59;102190.09;6278469;22;45618;-81
2022/05/27 11:37:58;;;;;;;;;6.00;5.00;;;;;21.66;50.85;102184.84;6279184;22;47910;-81
2022/05/27 11:40:38;;;;;;;;;5.00;5.00;;;;;21.60;50.60;102182.34;6279872;22;45684;-81
2022/05/27 11:43:54;;;;;;;;;5.00;5.00;;;;;21.57;50.99;102175.28;6307317;22;45434;-83
2022/05/27 11:46:26;;;;;;;;;3.00;3.00;;;;;21.53;50.83;102180.75;6183068;23;45359;-81
2022/05/27 11:49:07;;;;;;;;;6.00;6.00;;;;;21.38;50.87;102179.31;6156238;23;47315;-83
2022/05/27 11:51:52;;;;;;;;;4.67;3.67;;;;;21.22;51.12;102176.13;6240682;22;45396;-82
2022/05/27 11:55:17;;;;;;;;;5.00;5.00;;;;;21.05;51.66;102173.88;6281153;22;45390;-82
2022/05/27 11:58:15;;;;;;;;;3.00;3.00;;;;;20.88;51.54;102168.06;6184521;23;45333;-80
2022/05/27 12:01:01;;;;;;;;;3.33;3.33;;;;;20.80;52.33;102165.56;6157654;23;46819;-81
2022/05/27 12:03:56;;;;;;;;;3.67;3.67;;;;;20.80;52.48;102167.38;6278162;22;45513;-83
2022/05/27 12:06:36;;;;;;;;;3.00;2.00;;;;;20.81;52.71;102177.16;6306306;22;45284;-81
2022/05/27 12:09:18;;;;;;;;;2.00;2.00;;;;;20.79;52.64;102171.81;6280646;22;45719;-79
2022/05/27 12:11:50;;;;;;;;;3.33;3.33;;;;;20.84;52.58;102171.72;6279448;22;47050;-80
2022/05/27 12:14:27;;;;;;;;;2.00;2.00;;;;;20.92;52.58;102185.81;6279488;22;45868;-80
2022/05/27 12:16:58;;;;;;;;;2.00;2.00;;;;;21.03;52.44;102175.72;6279039;22;45292;-81
2022/05/27 12:19:38;;;;;;;;;2.33;2.33;;;;;21.22;52.19;102175.25;6304482;22;45541;-80